createdAt,value
2022-09-27T00:00:16.008Z,8.38
2022-09-27T00:02:45.397Z,8.65
2022-09-27T00:05:14.684Z,9.10
2022-09-27T00:07:44.793Z,9.10
2022-09-27T00:10:14.707Z,9.27
2022-09-27T00:12:44.208Z,9.35
2022-09-27T00:15:14.849Z,9.50
2022-09-27T00:17:44.101Z,10.20
2022-09-27T00:20:13.451Z,10.65
2022-09-27T00:22:42.561Z,10.95
2022-09-27T00:25:12.552Z,9.55
2022-09-27T00:27:41.850Z,9.80
2022-09-27T00:30:15.032Z,10.30
2022-09-27T00:32:44.200Z,9.20
2022-09-27T00:38:20.173Z,9.18
2022-09-27T00:40:50.048Z,9.18
2022-09-27T00:43:22.410Z,10.38
2022-09-27T00:45:58.008Z,9.45
2022-09-27T00:48:32.715Z,9.23
2022-09-27T00:51:06.596Z,8.85
2022-09-27T00:53:41.072Z,9.23
2022-09-27T00:56:14.850Z,9.13
2022-09-27T00:58:58.463Z,9.20
2022-09-27T01:01:30.698Z,9.00
2022-09-27T01:04:05.053Z,8.38
2022-09-27T01:06:34.737Z,8.93
2022-09-27T01:09:04.136Z,10.15
2022-09-27T01:11:43.827Z,10.38
2022-09-27T01:14:38.320Z,9.68
2022-09-27T01:17:32.230Z,9.82
2022-09-27T01:20:31.361Z,10.95
2022-09-27T01:23:30.322Z,9.90
2022-09-27T01:26:15.048Z,11.95
2022-09-27T01:29:01.915Z,10.65
2022-09-27T01:31:38.257Z,10.63
2022-09-27T01:34:18.156Z,11.65
2022-09-27T01:36:58.932Z,12.68
2022-09-27T01:39:41.346Z,11.15
2022-09-27T01:42:43.307Z,11.27
2022-09-27T01:45:21.377Z,11.18
2022-09-27T01:48:10.970Z,10.23
2022-09-27T01:51:13.748Z,9.68
2022-09-27T01:53:53.361Z,9.68
2022-09-27T01:56:45.226Z,9.98
2022-09-27T01:59:29.840Z,9.35
2022-09-27T02:02:28.544Z,10.18
2022-09-27T02:05:21.534Z,11.85
2022-09-27T02:08:00.187Z,12.00
2022-09-27T02:10:35.124Z,12.55
2022-09-27T02:13:23.795Z,13.00
2022-09-27T02:16:12.935Z,12.60
2022-09-27T02:18:57.077Z,12.13
2022-09-27T02:21:38.366Z,12.35
2022-09-27T02:24:14.080Z,12.95
2022-09-27T02:26:51.345Z,12.50
2022-09-27T02:29:27.299Z,11.68
2022-09-27T02:31:57.544Z,12.07
2022-09-27T02:34:30.610Z,13.55
2022-09-27T02:37:02.093Z,15.20
2022-09-27T02:39:31.527Z,15.63
2022-09-27T02:42:07.246Z,13.98
2022-09-27T02:44:39.125Z,14.38
2022-09-27T02:47:39.425Z,13.55
2022-09-27T02:50:31.167Z,14.43
2022-09-27T02:53:13.286Z,15.77
2022-09-27T02:56:01.548Z,15.15
2022-09-27T02:59:04.957Z,15.70
2022-09-27T03:02:12.505Z,15.50
2022-09-27T03:05:11.154Z,15.95
2022-09-27T03:07:41.135Z,17.20
2022-09-27T03:10:19.656Z,16.80
2022-09-27T03:12:49.494Z,16.23
2022-09-27T03:15:27.174Z,15.63
2022-09-27T03:18:03.109Z,14.52
2022-09-27T03:20:58.165Z,14.95
2022-09-27T03:23:28.787Z,17.63
2022-09-27T03:25:59.845Z,17.45
2022-09-27T03:28:29.966Z,18.02
2022-09-27T03:31:00.227Z,18.58
2022-09-27T03:33:52.607Z,16.88
2022-09-27T03:36:22.413Z,16.88
2022-09-27T03:38:51.698Z,18.08
2022-09-27T03:41:24.088Z,17.95
2022-09-27T03:43:56.707Z,17.33
2022-09-27T03:46:28.595Z,18.20
2022-09-27T03:49:00.156Z,17.48
2022-09-27T03:51:29.555Z,20.52
2022-09-27T03:53:58.915Z,20.02
2022-09-27T03:56:30.748Z,21.10
2022-09-27T03:59:00.237Z,21.27
2022-09-27T04:01:31.546Z,20.08
2022-09-27T04:04:18.797Z,20.20
2022-09-27T04:06:49.226Z,19.88
2022-09-27T04:09:19.608Z,20.10
2022-09-27T04:12:00.641Z,19.75
2022-09-27T04:14:30.088Z,25.60
2022-09-27T04:17:18.988Z,26.70
2022-09-27T04:20:10.128Z,21.98
2022-09-27T04:22:44.221Z,19.40
2022-09-27T04:25:40.988Z,18.98
2022-09-27T04:28:40.883Z,17.95
2022-09-27T04:31:10.339Z,18.17
2022-09-27T04:34:14.973Z,18.98
2022-09-27T04:36:43.293Z,20.00
2022-09-27T04:39:17.057Z,16.98
2022-09-27T04:41:48.831Z,18.63
2022-09-27T04:44:19.619Z,24.48
2022-09-27T04:46:52.633Z,17.75
2022-09-27T04:49:31.286Z,18.17
2022-09-27T04:52:00.910Z,19.92
2022-09-27T04:54:30.586Z,18.70
2022-09-27T04:57:13.151Z,16.60
2022-09-27T04:59:44.820Z,16.70
2022-09-27T05:02:15.861Z,15.48
2022-09-27T05:05:06.868Z,15.35
2022-09-27T05:07:40.619Z,15.65
2022-09-27T05:10:15.250Z,15.48
2022-09-27T05:12:44.699Z,15.88
2022-09-27T05:15:21.947Z,14.98
2022-09-27T05:18:30.200Z,15.98
2022-09-27T05:21:28.501Z,15.38
2022-09-27T05:23:58.118Z,15.63
2022-09-27T05:26:27.465Z,16.05
2022-09-27T05:28:56.862Z,15.85
2022-09-27T05:31:28.153Z,15.18
2022-09-27T05:33:57.752Z,16.55
2022-09-27T05:36:39.542Z,16.92
2022-09-27T05:39:09.132Z,16.67
2022-09-27T05:41:38.869Z,15.15
2022-09-27T05:44:10.595Z,15.85
2022-09-27T05:46:48.286Z,16.58
2022-09-27T05:49:17.855Z,15.30
2022-09-27T05:51:47.558Z,16.63
2022-09-27T05:54:16.974Z,16.25
2022-09-27T05:56:46.652Z,16.67
2022-09-27T05:59:33.145Z,16.98
2022-09-27T06:02:24.001Z,16.92
2022-09-27T06:05:11.764Z,17.88
2022-09-27T06:10:36.811Z,17.70
2022-09-27T06:13:12.318Z,18.92
2022-09-27T06:15:47.332Z,17.27
2022-09-27T06:18:18.431Z,19.20
2022-09-27T06:20:50.985Z,18.73
2022-09-27T06:23:22.537Z,18.25
2022-09-27T06:25:53.823Z,17.67
2022-09-27T06:28:26.653Z,19.38
2022-09-27T06:31:00.638Z,17.95
2022-09-27T06:33:52.352Z,18.08
2022-09-27T06:36:21.888Z,17.08
2022-09-27T06:38:51.218Z,17.52
2022-09-27T06:41:24.494Z,18.60
2022-09-27T06:44:18.086Z,17.20
2022-09-27T06:47:05.937Z,17.55
2022-09-27T06:49:54.968Z,17.98
2022-09-27T06:52:31.253Z,16.95
2022-09-27T06:55:00.576Z,15.90
2022-09-27T06:57:47.362Z,17.27
2022-09-27T07:00:27.746Z,15.60
2022-09-27T07:03:36.532Z,15.90
2022-09-27T07:06:42.252Z,14.73
2022-09-27T07:11:50.491Z,15.38
2022-09-27T07:14:20.795Z,15.30
2022-09-27T07:16:51.080Z,15.02
2022-09-27T07:19:21.425Z,13.75
2022-09-27T07:21:55.681Z,14.07
2022-09-27T07:24:26.097Z,13.23
2022-09-27T07:26:55.690Z,13.60
2022-09-27T07:29:25.960Z,12.82
2022-09-27T07:31:56.871Z,13.52
2022-09-27T07:34:26.455Z,13.23
2022-09-27T07:37:00.503Z,15.13
2022-09-27T07:39:31.038Z,15.15
2022-09-27T07:42:04.221Z,14.98
2022-09-27T07:44:33.822Z,13.35
2022-09-27T07:47:32.530Z,11.68
2022-09-27T07:50:09.698Z,10.10
2022-09-27T07:52:59.318Z,10.43
2022-09-27T07:55:37.018Z,9.55
2022-09-27T07:58:13.984Z,10.45
2022-09-27T08:00:44.567Z,10.55
2022-09-27T08:03:17.691Z,9.95
2022-09-27T08:05:49.861Z,10.50
2022-09-27T08:08:21.016Z,10.07
2022-09-27T08:10:52.523Z,9.82
2022-09-27T08:13:22.641Z,9.73
2022-09-27T08:15:54.986Z,11.50
2022-09-27T08:18:26.083Z,9.82
2022-09-27T08:21:01.403Z,10.75
2022-09-27T08:23:43.157Z,8.70
2022-09-27T08:26:32.406Z,10.15
2022-09-27T08:29:14.226Z,10.07
2022-09-27T08:31:53.992Z,8.48
2022-09-27T08:34:24.361Z,8.73
2022-09-27T08:36:54.414Z,8.07
2022-09-27T08:39:25.486Z,9.88
2022-09-27T08:42:03.828Z,8.18
2022-09-27T08:44:44.466Z,6.78
2022-09-27T08:47:20.765Z,6.20
2022-09-27T08:49:57.404Z,5.88
2022-09-27T08:52:32.802Z,5.63
2022-09-27T08:55:29.089Z,5.78
2022-09-27T08:58:01.280Z,6.20
2022-09-27T09:00:32.657Z,6.07
2022-09-27T09:03:03.955Z,6.28
2022-09-27T09:05:38.272Z,5.03
2022-09-27T09:08:32.773Z,5.38
2022-09-27T09:11:31.207Z,5.60
2022-09-27T09:14:24.914Z,6.00
2022-09-27T09:17:06.154Z,5.75
2022-09-27T09:20:02.481Z,5.70
2022-09-27T09:22:56.900Z,6.50
2022-09-27T09:25:36.380Z,6.15
2022-09-27T09:28:30.521Z,5.75
2022-09-27T09:31:11.833Z,6.15
2022-09-27T09:33:47.722Z,6.05
2022-09-27T09:36:28.720Z,5.80
2022-09-27T09:39:03.861Z,5.90
2022-09-27T09:41:40.565Z,5.88
2022-09-27T09:44:21.215Z,5.90
2022-09-27T09:46:55.677Z,5.53
2022-09-27T09:49:31.829Z,5.63
2022-09-27T09:52:09.071Z,6.22
2022-09-27T09:54:44.252Z,5.55
2022-09-27T09:57:18.132Z,5.50
2022-09-27T09:59:54.587Z,6.22
2022-09-27T10:02:33.359Z,5.63
2022-09-27T10:05:17.965Z,5.28
2022-09-27T10:07:51.728Z,5.88
2022-09-27T10:10:22.996Z,5.30
2022-09-27T10:13:04.786Z,5.93
2022-09-27T10:15:39.783Z,5.70
2022-09-27T10:18:18.998Z,5.75
2022-09-27T10:20:53.936Z,5.80
2022-09-27T10:23:26.673Z,6.03
2022-09-27T10:26:21.629Z,5.63
2022-09-27T10:28:52.376Z,5.60
2022-09-27T10:31:38.885Z,6.03
2022-09-27T10:34:31.880Z,6.32
2022-09-27T10:37:19.053Z,5.18
2022-09-27T10:39:59.870Z,5.32
2022-09-27T10:42:38.707Z,6.53
2022-09-27T10:45:29.262Z,6.40
2022-09-27T10:48:23.691Z,6.40
2022-09-27T10:51:01.623Z,6.20
2022-09-27T10:53:52.175Z,3.33
2022-09-27T10:56:31.979Z,2.30
2022-09-27T10:59:02.977Z,2.15
2022-09-27T11:01:45.470Z,1.98
2022-09-27T11:05:11.239Z,1.70
2022-09-27T11:07:52.788Z,1.88
2022-09-27T11:10:28.820Z,1.45
2022-09-27T11:13:13.209Z,1.20
2022-09-27T11:16:09.953Z,0.85
2022-09-27T11:18:50.556Z,1.30
2022-09-27T11:21:31.927Z,1.40
2022-09-27T11:24:22.903Z,1.42
2022-09-27T11:27:05.791Z,1.60
2022-09-27T11:29:53.294Z,1.38
2022-09-27T11:33:11.141Z,1.48
2022-09-27T11:36:00.226Z,2.33
2022-09-27T11:38:52.681Z,1.00
2022-09-27T11:41:48.327Z,1.73
2022-09-27T11:44:48.379Z,0.90
2022-09-27T11:47:34.909Z,0.85
2022-09-27T11:50:47.952Z,0.85
2022-09-27T11:53:34.756Z,1.30
2022-09-27T11:56:21.425Z,1.10
2022-09-27T11:59:09.835Z,1.33
2022-09-27T12:01:51.420Z,0.60
2022-09-27T12:04:47.536Z,1.00
2022-09-27T12:07:25.208Z,0.98
2022-09-27T12:10:00.972Z,1.35
2022-09-27T12:12:36.608Z,1.25
2022-09-27T12:15:14.375Z,0.90
2022-09-27T12:17:49.095Z,0.60
2022-09-27T12:20:24.606Z,0.90
2022-09-27T12:23:00.677Z,1.00
2022-09-27T12:25:50.879Z,0.90
2022-09-27T12:28:37.072Z,0.80
2022-09-27T12:34:19.873Z,1.00
2022-09-27T12:37:00.975Z,0.88
2022-09-27T12:39:43.094Z,0.90
2022-09-27T12:42:27.104Z,1.33
2022-09-27T12:45:03.497Z,0.98
2022-09-27T12:47:57.823Z,1.30
2022-09-27T12:50:36.931Z,2.13
2022-09-27T12:53:23.391Z,1.70
2022-09-27T12:56:36.530Z,1.40
2022-09-27T12:59:29.456Z,2.28
2022-09-27T13:03:03.908Z,2.17
2022-09-27T13:06:14.233Z,1.50
2022-09-27T13:09:37.924Z,1.10
2022-09-27T13:12:12.188Z,1.40
2022-09-27T13:15:00.101Z,1.52
2022-09-27T13:17:56.223Z,1.60
2022-09-27T13:20:49.408Z,1.48
2022-09-27T13:23:53.164Z,1.73
2022-09-27T13:26:53.070Z,1.20
2022-09-27T13:29:34.377Z,1.42
2022-09-27T13:32:22.503Z,2.10
2022-09-27T13:35:21.599Z,1.58
2022-09-27T13:38:23.961Z,1.50
2022-09-27T13:40:56.946Z,1.38
2022-09-27T13:43:50.700Z,1.40
2022-09-27T13:46:52.977Z,1.80
2022-09-27T13:49:31.603Z,1.58
2022-09-27T13:52:26.414Z,1.50
2022-09-27T13:55:45.877Z,1.17
2022-09-27T13:58:48.179Z,1.38
2022-09-27T14:01:55.657Z,1.40
2022-09-27T14:04:37.245Z,1.75
2022-09-27T14:07:06.985Z,1.40
2022-09-27T14:09:42.589Z,1.67
2022-09-27T14:12:35.918Z,1.58
2022-09-27T14:15:11.587Z,1.83
2022-09-27T14:17:45.968Z,2.13
2022-09-27T14:20:38.913Z,1.80
2022-09-27T14:23:19.860Z,1.67
2022-09-27T14:25:55.388Z,2.20
2022-09-27T14:28:28.646Z,2.63
2022-09-27T14:31:14.902Z,2.20
2022-09-27T14:34:10.223Z,2.58
2022-09-27T14:37:04.026Z,2.70
2022-09-27T14:39:39.642Z,2.70
2022-09-27T14:42:28.756Z,2.40
2022-09-27T14:45:04.633Z,2.90
2022-09-27T14:47:34.360Z,2.95
2022-09-27T14:50:19.031Z,3.05
2022-09-27T14:52:49.922Z,2.85
2022-09-27T14:55:23.139Z,3.45
2022-09-27T14:57:55.919Z,2.70
2022-09-27T15:00:29.269Z,2.40
2022-09-27T15:03:00.257Z,2.72
2022-09-27T15:05:32.224Z,2.80
2022-09-27T15:08:05.983Z,2.50
2022-09-27T15:13:42.353Z,3.33
2022-09-27T15:16:20.099Z,3.78
2022-09-27T15:18:51.389Z,3.90
2022-09-27T15:21:31.074Z,4.28
2022-09-27T15:24:03.772Z,3.42
2022-09-27T15:26:39.406Z,3.45
2022-09-27T15:29:20.398Z,3.67
2022-09-27T15:32:00.940Z,3.90
2022-09-27T15:34:30.683Z,3.95
2022-09-27T15:37:03.533Z,4.63
2022-09-27T15:39:35.358Z,4.05
2022-09-27T15:42:13.581Z,4.22
2022-09-27T15:44:49.661Z,3.60
2022-09-27T15:47:50.804Z,3.38
2022-09-27T15:50:41.174Z,3.30
2022-09-27T15:53:11.443Z,3.55
2022-09-27T15:55:45.678Z,3.58
2022-09-27T15:58:20.267Z,4.10
2022-09-27T16:00:56.237Z,3.67
2022-09-27T16:03:27.835Z,3.47
2022-09-27T16:06:05.233Z,3.95
2022-09-27T16:11:05.839Z,4.75
2022-09-27T16:13:35.981Z,3.70
2022-09-27T16:16:07.504Z,3.92
2022-09-27T16:18:36.709Z,3.88
2022-09-27T16:21:06.538Z,3.90
2022-09-27T16:23:36.644Z,4.18
2022-09-27T16:26:06.591Z,4.00
2022-09-27T16:28:36.826Z,4.25
2022-09-27T16:31:10.239Z,4.53
2022-09-27T16:33:40.523Z,9.30
2022-09-27T16:36:14.628Z,14.05
2022-09-27T16:38:44.463Z,16.20
2022-09-27T16:41:13.606Z,11.10
2022-09-27T16:43:42.873Z,9.75
2022-09-27T16:46:16.009Z,7.68
2022-09-27T16:48:45.492Z,9.18
2022-09-27T16:51:36.129Z,7.72
2022-09-27T16:54:09.644Z,8.45
2022-09-27T16:56:38.865Z,9.75
2022-09-27T16:59:07.986Z,6.97
2022-09-27T17:01:40.741Z,6.88
2022-09-27T17:04:11.278Z,5.45
2022-09-27T17:06:40.445Z,4.93
2022-09-27T17:09:12.086Z,4.60
2022-09-27T17:11:42.489Z,4.57
2022-09-27T17:14:14.448Z,4.57
2022-09-27T17:16:47.528Z,5.10
2022-09-27T17:19:18.558Z,4.47
2022-09-27T17:21:49.160Z,5.18
2022-09-27T17:24:18.742Z,5.25
2022-09-27T17:26:48.698Z,5.88
2022-09-27T17:29:18.342Z,6.65
2022-09-27T17:31:49.167Z,7.05
2022-09-27T17:34:19.018Z,7.50
2022-09-27T17:36:51.764Z,8.27
2022-09-27T17:39:22.874Z,8.43
2022-09-27T17:41:52.653Z,9.32
2022-09-27T17:44:23.802Z,10.18
2022-09-27T17:47:15.573Z,8.15
2022-09-27T17:50:02.110Z,6.75
2022-09-27T17:52:32.829Z,7.18
2022-09-27T17:55:02.050Z,6.18
2022-09-27T17:57:31.889Z,6.90
2022-09-27T18:00:01.301Z,5.45
2022-09-27T18:02:31.911Z,5.97
2022-09-27T18:05:02.531Z,5.50
2022-09-27T18:07:32.421Z,6.47
2022-09-27T18:10:04.507Z,7.90
2022-09-27T18:12:34.895Z,10.68
2022-09-27T18:15:04.146Z,9.15
2022-09-27T18:17:40.556Z,9.10
2022-09-27T18:20:13.845Z,9.27
2022-09-27T18:22:43.267Z,18.88
2022-09-27T18:25:16.545Z,12.73
2022-09-27T18:27:50.141Z,12.93
2022-09-27T18:30:19.992Z,13.05
2022-09-27T18:32:53.805Z,12.63
2022-09-27T18:35:24.793Z,9.85
2022-09-27T18:37:57.459Z,8.73
2022-09-27T18:40:54.686Z,8.50
2022-09-27T18:43:26.029Z,7.25
2022-09-27T18:46:07.754Z,7.13
2022-09-27T18:48:52.611Z,6.65
2022-09-27T18:51:27.026Z,7.75
2022-09-27T18:53:57.993Z,8.45
2022-09-27T18:56:28.548Z,8.75
2022-09-27T18:58:58.821Z,34.65
2022-09-27T19:01:31.407Z,26.00
2022-09-27T19:04:03.032Z,19.98
2022-09-27T19:06:32.452Z,19.67
2022-09-27T19:09:03.791Z,14.98
2022-09-27T19:11:36.613Z,13.80
2022-09-27T19:14:05.980Z,11.95
2022-09-27T19:16:37.267Z,11.18
2022-09-27T19:19:11.430Z,11.40
2022-09-27T19:21:41.918Z,14.45
2022-09-27T19:24:11.910Z,11.70
2022-09-27T19:26:41.445Z,13.32
2022-09-27T19:29:10.986Z,11.15
2022-09-27T19:31:41.212Z,11.02
2022-09-27T19:34:13.414Z,11.10
2022-09-27T19:36:42.856Z,12.45
2022-09-27T19:39:12.174Z,11.68
2022-09-27T19:41:41.599Z,10.95
2022-09-27T19:44:11.052Z,12.07
2022-09-27T19:46:40.572Z,11.65
2022-09-27T19:49:09.822Z,12.65
2022-09-27T19:51:40.483Z,13.57
2022-09-27T19:54:12.930Z,18.55
2022-09-27T19:56:43.250Z,18.13
2022-09-27T19:59:15.255Z,19.15
2022-09-27T20:01:44.560Z,16.05
2022-09-27T20:04:16.666Z,14.50
2022-09-27T20:06:48.716Z,13.45
2022-09-27T20:09:17.933Z,15.68
2022-09-27T20:11:49.890Z,13.32
2022-09-27T20:14:19.728Z,12.50
2022-09-27T20:16:50.945Z,13.07
2022-09-27T20:19:22.478Z,16.40
2022-09-27T20:21:54.805Z,14.88
2022-09-27T20:24:25.158Z,16.08
2022-09-27T20:26:54.675Z,12.85
2022-09-27T20:29:23.783Z,16.98
2022-09-27T20:32:15.878Z,12.70
2022-09-27T20:34:43.215Z,13.15
2022-09-27T20:37:14.676Z,16.50
2022-09-27T20:39:43.814Z,18.83
2022-09-27T20:42:12.977Z,19.58
2022-09-27T20:44:42.048Z,18.70
2022-09-27T20:47:11.123Z,17.38
2022-09-27T20:49:42.932Z,18.73
2022-09-27T20:52:13.538Z,18.55
2022-09-27T20:54:42.642Z,17.70
2022-09-27T20:57:11.657Z,16.42
2022-09-27T20:59:40.858Z,15.20
2022-09-27T21:02:09.995Z,21.60
2022-09-27T21:04:41.253Z,20.88
2022-09-27T21:07:10.481Z,21.85
2022-09-27T21:09:41.144Z,20.08
2022-09-27T21:12:10.202Z,21.00
2022-09-27T21:14:39.320Z,21.17
2022-09-27T21:17:11.662Z,21.95
2022-09-27T21:19:40.885Z,17.92
2022-09-27T21:22:11.560Z,18.95
2022-09-27T21:24:42.080Z,16.13
2022-09-27T21:27:12.931Z,17.00
2022-09-27T21:29:44.265Z,15.38
2022-09-27T21:32:13.429Z,14.32
2022-09-27T21:34:42.581Z,15.07
2022-09-27T21:37:11.705Z,13.88
2022-09-27T21:39:42.339Z,13.70
2022-09-27T21:42:11.501Z,12.48
2022-09-27T21:44:40.612Z,12.48
2022-09-27T21:47:09.652Z,11.20
2022-09-27T21:49:38.737Z,11.23
2022-09-27T21:52:07.834Z,10.15
2022-09-27T21:54:36.962Z,10.80
2022-09-27T21:57:07.597Z,12.48
2022-09-27T21:59:36.658Z,13.90
2022-09-27T22:02:05.839Z,15.75
2022-09-27T22:04:34.960Z,15.10
2022-09-27T22:07:04.177Z,15.85
2022-09-27T22:09:33.374Z,15.43
2022-09-27T22:12:03.348Z,16.25
2022-09-27T22:14:36.372Z,16.60
2022-09-27T22:17:05.673Z,14.70
2022-09-27T22:19:37.474Z,13.25
2022-09-27T22:22:06.580Z,12.15
2022-09-27T22:24:36.070Z,10.50
2022-09-27T22:27:05.391Z,12.05
2022-09-27T22:29:36.189Z,12.48
2022-09-27T22:32:05.313Z,13.60
2022-09-27T22:34:45.853Z,13.32
2022-09-27T22:37:15.038Z,13.50
2022-09-27T22:39:44.064Z,15.02
2022-09-27T22:42:13.255Z,13.10
2022-09-27T22:44:43.738Z,14.07
2022-09-27T22:47:13.107Z,14.98
2022-09-27T22:49:42.210Z,14.32
2022-09-27T22:52:13.442Z,10.13
2022-09-27T22:54:42.508Z,10.20
2022-09-27T22:57:11.651Z,9.50
2022-09-27T22:59:40.841Z,9.98
2022-09-27T23:02:11.300Z,9.85
2022-09-27T23:04:40.288Z,10.13
2022-09-27T23:07:10.170Z,10.20
2022-09-27T23:09:39.381Z,10.18
2022-09-27T23:12:08.546Z,10.52
2022-09-27T23:14:42.559Z,10.85
2022-09-27T23:17:13.988Z,10.35
2022-09-27T23:19:43.131Z,10.80
2022-09-27T23:22:12.227Z,12.20
2022-09-27T23:24:41.327Z,14.57
2022-09-27T23:27:27.856Z,14.50
2022-09-27T23:29:56.909Z,13.07
2022-09-27T23:32:31.554Z,15.00
2022-09-27T23:35:00.990Z,12.38
2022-09-27T23:37:30.339Z,13.40
2022-09-27T23:39:59.491Z,12.75
2022-09-27T23:42:28.577Z,12.88
2022-09-27T23:44:57.733Z,12.52
2022-09-27T23:47:28.296Z,10.10
2022-09-27T23:49:59.481Z,10.05
2022-09-27T23:52:28.548Z,10.32
2022-09-27T23:54:57.648Z,9.48
2022-09-27T23:57:26.749Z,8.38
2022-09-27T23:59:55.810Z,6.53
